M I D A S
Marine Information and Data Acquisition System
Tripno 1886 of the Zeeleeuw from 2010-05-25 07:47:05 to 2010-05-25 14:29:09
Back to CruiseResearch ActivitiesStationsMapUnderway DataData graphs

EquipmentUnitsComment
TimeDGPSUTC
LatitudeDGPSDM.mWGS84
LongitudeDGPSDM.mWGS84
HeadingGyrodeg 
SOGDGPSknotsSpeed over ground
COGDGPSdegCourse over ground
DepthEcho soundermeters200 kHz
Missing or incorrect values are displayed as -999
Navigation data collected by the RV Zeeleeuw from 2010-05-25 07:35:30 to 2010-05-25 14:38:49
Time Latitude Longitude Heading SOG COG Depth
2010-05-25 07:36:36 51°13.667 2°55.932 109.5 3.2 290 -999
2010-05-25 07:37:38 51°13.688 2°55.822 103.9 4.1 285 -999
2010-05-25 07:38:36 51°13.698 2°55.745 88.6 1.2 288 13
2010-05-25 07:39:35 51°13.701 2°55.737 36.6 1.4 229 12.9
2010-05-25 07:40:38 51°13.704 2°55.719 355.3 2.7 345 16.3
2010-05-25 07:41:36 51°13.778 2°55.674 338.5 6.5 335 12
2010-05-25 07:42:35 51°13.887 2°55.588 337.4 7.9 336 11.5
2010-05-25 07:43:35 51°14.012 2°55.501 338.4 8.4 336 11.7
2010-05-25 07:44:35 51°14.142 2°55.4 336 9.1 334 11.7
2010-05-25 07:45:35 51°14.285 2°55.275 331.7 10.4 328 11.6
2010-05-25 07:46:35 51°14.439 2°55.115 325.1 11.6 323 11.6
2010-05-25 07:47:35 51°14.607 2°54.928 326.5 12.8 322 12.2
2010-05-25 07:48:35 51°14.776 2°54.706 327.2 13.2 327 12.5
2010-05-25 07:49:35 51°14.959 2°54.515 329.5 13 325 10.8
2010-05-25 07:50:35 51°15.135 2°54.309 322.7 13.2 319 11.1
2010-05-25 07:51:35 51°15.303 2°54.083 324.5 13.3 321 11.4
2010-05-25 07:52:35 51°15.472 2°53.861 324.5 13.2 321 12
2010-05-25 07:53:35 51°15.643 2°53.643 325 13.1 322 12.2
2010-05-25 07:54:35 51°15.823 2°53.449 332.5 13 329 12.9
2010-05-25 07:55:35 51°16.011 2°53.276 333.5 13 330 12.8
2010-05-25 07:56:35 51°16.194 2°53.095 329.6 13 327 13
2010-05-25 07:57:35 51°16.373 2°52.899 326.3 13 324 13.2
2010-05-25 07:58:35 51°16.544 2°52.688 324.5 13.1 321 12.7
2010-05-25 07:59:35 51°16.71 2°52.466 324.1 12.9 320 11.9
2010-05-25 08:00:35 51°16.876 2°52.248 323.9 12.9 321 12.4
2010-05-25 08:01:35 51°17.065 2°52.097 342 12.8 339 12.3
2010-05-25 08:02:35 51°17.268 2°52.011 350.7 12.7 347 12.4
2010-05-25 08:03:35 51°17.47 2°51.912 341.9 12.8 339 11.7
2010-05-25 08:04:35 51°17.667 2°51.783 341.9 12.7 340 11.5
2010-05-25 08:05:35 51°17.87 2°51.687 348.5 12.8 346 11.6
2010-05-25 08:06:35 51°18.079 2°51.626 353.4 12.8 351 12.2
2010-05-25 08:07:35 51°18.29 2°51.588 356.7 12.7 355 13.3
2010-05-25 08:08:35 51°18.501 2°51.556 356.6 12.5 354 14.4
2010-05-25 08:09:35 51°18.698 2°51.526 356.4 11.7 354 15.2
2010-05-25 08:10:35 51°18.892 2°51.496 356.7 11.8 353 16.2
2010-05-25 08:11:35 51°19.086 2°51.467 356.9 11.8 355 16.6
2010-05-25 08:12:35 51°19.282 2°51.442 356.4 11.9 355 16.9
2010-05-25 08:13:35 51°19.48 2°51.418 356.5 11.9 356 16.6
2010-05-25 08:14:35 51°19.678 2°51.394 356.5 11.9 355 16.5
2010-05-25 08:15:35 51°19.874 2°51.368 355.9 11.8 354 15.7
2010-05-25 08:16:35 51°20.069 2°51.343 356.4 11.7 356 14
2010-05-25 08:17:35 51°20.263 2°51.32 356.2 11.7 356 14.8
2010-05-25 08:18:35 51°20.458 2°51.294 356.1 11.7 354 16.9
2010-05-25 08:19:35 51°20.653 2°51.268 356.4 11.8 356 18.5
2010-05-25 08:20:35 51°20.85 2°51.242 356 11.9 355 19.6
2010-05-25 08:21:35 51°21.047 2°51.216 356.2 11.9 355 22.3
2010-05-25 08:22:35 51°21.245 2°51.19 356.3 11.9 354 24.6
2010-05-25 08:23:35 51°21.443 2°51.159 356.3 12 355 25.4
2010-05-25 08:24:35 51°21.641 2°51.132 357.2 11.9 357 25.8
2010-05-25 08:25:35 51°21.839 2°51.108 355.7 12 354 25.8
2010-05-25 08:26:35 51°22.038 2°51.077 356.3 11.9 355 24.5
2010-05-25 08:27:35 51°22.236 2°51.046 356.5 12 355 24.4
2010-05-25 08:28:35 51°22.436 2°51.015 356.1 12.1 354 24.5
2010-05-25 08:29:35 51°22.637 2°50.986 356.5 12.2 356 24.3
2010-05-25 08:30:35 51°22.84 2°50.966 355.7 12.2 356 22.9
2010-05-25 08:31:35 51°23.04 2°50.942 356.3 11.9 356 18.2
2010-05-25 08:32:35 51°23.237 2°50.92 356 11.7 356 16.6
2010-05-25 08:33:35 51°23.432 2°50.896 356.1 11.8 355 17.8
2010-05-25 08:34:35 51°23.627 2°50.871 356.7 11.8 356 19.3
2010-05-25 08:35:35 51°23.823 2°50.845 356.4 11.8 355 19.3
2010-05-25 08:36:35 51°24.021 2°50.818 356.4 12 355 23.5
2010-05-25 08:37:35 51°24.219 2°50.791 356.5 11.9 355 23.9
2010-05-25 08:38:35 51°24.418 2°50.765 356.2 11.9 355 23.9
2010-05-25 08:39:35 51°24.616 2°50.737 355.9 12 354 24.7
2010-05-25 08:40:35 51°24.816 2°50.709 356.5 12.1 355 24.6
2010-05-25 08:41:35 51°25.017 2°50.686 357.2 12.1 358 25.1
2010-05-25 08:42:35 51°25.219 2°50.665 356.4 12.2 356 25.1
2010-05-25 08:43:35 51°25.421 2°50.645 355.7 12.2 356 25.4
2010-05-25 08:44:35 51°25.623 2°50.628 355.9 12.2 356 25.3
2010-05-25 08:45:35 51°25.826 2°50.611 356.1 12.2 358 25.3
2010-05-25 08:46:35 51°26.03 2°50.597 356.3 12.4 357 25.3
2010-05-25 08:47:35 51°26.234 2°50.574 355.7 12.1 355 25.3
2010-05-25 08:48:35 51°26.435 2°50.548 357.1 12.1 356 25.6
2010-05-25 08:49:35 51°26.636 2°50.523 356.5 12.1 355 25.3
2010-05-25 08:50:35 51°26.836 2°50.495 356.4 12 355 25
2010-05-25 08:51:35 51°27.036 2°50.471 356.9 12 357 19.7
2010-05-25 08:52:35 51°27.236 2°50.443 356 12.1 355 23.6
2010-05-25 08:53:35 51°27.437 2°50.416 356.3 12.2 355 25.1
2010-05-25 08:54:35 51°27.64 2°50.387 356.1 12.3 355 26.4
2010-05-25 08:55:35 51°27.844 2°50.359 356.5 12.3 356 30.5
2010-05-25 08:56:35 51°28.05 2°50.335 358.6 12.5 359 29.1
2010-05-25 08:57:35 51°28.258 2°50.329 359 12.5 359 29.1
2010-05-25 08:58:35 51°28.466 2°50.327 0.1 12.4 2 29.3
2010-05-25 08:59:35 51°28.672 2°50.336 359.3 12.4 3 28.6
2010-05-25 09:00:35 51°28.878 2°50.341 359.1 12.4 -999 28.2
2010-05-25 09:01:35 51°29.084 2°50.348 359.1 12.4 1 31.9
2010-05-25 09:02:35 51°29.286 2°50.419 15.9 12.6 18 31.4
2010-05-25 09:03:35 51°29.472 2°50.582 33.9 12.9 36 33.1
2010-05-25 09:04:35 51°29.597 2°50.861 64.5 13 67 32.5
2010-05-25 09:05:35 51°29.66 2°51.194 73 13 73 32.2
2010-05-25 09:06:35 51°29.741 2°51.515 63.4 12.9 64 32.5
2010-05-25 09:07:35 51°29.843 2°51.821 61.1 13 61 33.2
2010-05-25 09:08:35 51°29.936 2°52.134 65.6 13 66 33.5
2010-05-25 09:09:35 51°30.023 2°52.453 66.2 13.1 66 30.8
2010-05-25 09:10:35 51°30.11 2°52.77 65.8 12.4 66 32.2
2010-05-25 09:11:35 51°30.18 2°53.063 71.2 11.4 72 32.6
2010-05-25 09:12:35 51°30.239 2°53.35 71 11.3 72 33.3
2010-05-25 09:13:35 51°30.304 2°53.648 70.5 12.4 70 34.6
2010-05-25 09:14:35 51°30.373 2°53.961 70.4 12.3 71 36.2
2010-05-25 09:15:35 51°30.44 2°54.265 70.5 11.9 71 36.9
2010-05-25 09:16:35 51°30.504 2°54.56 70.5 11.7 71 36.3
2010-05-25 09:17:35 51°30.57 2°54.855 70.5 11.7 71 37.2
2010-05-25 09:18:35 51°30.636 2°55.149 70.5 11.7 70 39.2
2010-05-25 09:19:35 51°30.703 2°55.443 70.5 11.7 70 40.5
2010-05-25 09:20:35 51°30.771 2°55.738 70.1 11.8 69 39.6
2010-05-25 09:21:35 51°30.84 2°56.034 70.7 11.8 70 37.1
2010-05-25 09:22:35 51°30.908 2°56.33 70.5 11.9 70 35.6
2010-05-25 09:23:35 51°30.978 2°56.625 68.4 11.8 68 35.4
2010-05-25 09:24:35 51°31.061 2°56.911 65.4 11.9 65 34.2
2010-05-25 09:25:35 51°31.161 2°57.182 53.1 11.8 51 33.9
2010-05-25 09:26:35 51°31.296 2°57.408 43.6 11.7 44 35
2010-05-25 09:27:35 51°31.433 2°57.629 44.9 11.7 46 35
2010-05-25 09:28:35 51°31.568 2°57.854 45.7 11.7 46 35.7
2010-05-25 09:29:35 51°31.703 2°58.08 46.2 11.8 47 36.7
2010-05-25 09:30:35 51°31.837 2°58.307 45.6 11.7 46 35.8
2010-05-25 09:31:35 51°31.971 2°58.533 46 11.7 47 39.3
2010-05-25 09:32:35 51°32.106 2°58.76 46.5 11.7 47 38.4
2010-05-25 09:33:35 51°32.241 2°58.989 46 11.8 47 37.2
2010-05-25 09:34:35 51°32.376 2°59.219 46.5 11.8 47 37.9
2010-05-25 09:35:35 51°32.511 2°59.448 45.9 11.8 46 37.8
2010-05-25 09:36:35 51°32.646 2°59.675 46.5 11.7 46 34.9
2010-05-25 09:37:35 51°32.808 2°59.806 9.6 10.7 5 35.2
2010-05-25 09:38:35 51°32.958 2°59.697 311 10 314 34.5
2010-05-25 09:39:35 51°33.041 2°59.446 291.5 11.2 293 21
2010-05-25 09:40:35 51°33.133 2°59.187 301.3 11.2 302 16.5
2010-05-25 09:41:35 51°33.233 2°58.928 301.1 12 301 18.4
2010-05-25 09:42:35 51°33.339 2°58.651 300.3 12.2 301 18.1
2010-05-25 09:43:35 51°33.447 2°58.374 299.8 12.2 301 22.7
2010-05-25 09:44:35 51°33.554 2°58.095 300.6 12.3 302 23
2010-05-25 09:45:35 51°33.664 2°57.816 300.5 12.4 302 24.4
2010-05-25 09:46:35 51°33.773 2°57.534 300.6 12.4 300 27.9
2010-05-25 09:47:35 51°33.884 2°57.252 300.5 12.6 303 28
2010-05-25 09:48:35 51°33.996 2°56.967 299.6 12.7 303 31.4
2010-05-25 09:49:35 51°34.106 2°56.686 300.6 12.1 302 31.2
2010-05-25 09:50:35 51°34.213 2°56.418 300.6 11.8 302 33.7
2010-05-25 09:51:35 51°34.32 2°56.152 301 11.9 303 33
2010-05-25 09:52:35 51°34.404 2°55.875 277.3 11.4 280 32.8
2010-05-25 09:53:35 51°34.365 2°55.585 243.1 11.5 242 33.5
2010-05-25 09:54:35 51°34.25 2°55.341 228.8 11.5 228 32.5
2010-05-25 09:55:35 51°34.118 2°55.12 226.8 11.4 225 32.7
2010-05-25 09:56:35 51°33.988 2°54.896 228.4 11.5 228 32.8
2010-05-25 09:57:35 51°33.859 2°54.671 228.1 11.4 228 31.9
2010-05-25 09:58:35 51°33.728 2°54.448 226.8 11.5 228 31.8
2010-05-25 09:59:35 51°33.597 2°54.222 227.8 11.5 226 30.2
2010-05-25 10:00:35 51°33.47 2°53.992 230.9 11.5 232 29.5
2010-05-25 10:01:35 51°33.354 2°53.75 232.5 11.5 234 31
2010-05-25 10:02:35 51°33.242 2°53.5 235.4 11.5 235 30.5
2010-05-25 10:03:35 51°33.132 2°53.247 235.3 11.5 235 29.3
2010-05-25 10:04:35 51°33.026 2°52.993 235.3 11.5 238 31.1
2010-05-25 10:05:35 51°32.916 2°52.74 236.4 11.4 237 30.4
2010-05-25 10:06:35 51°32.815 2°52.482 237.4 11.4 238 30.9
2010-05-25 10:07:35 51°32.715 2°52.219 238.1 11.6 236 31.2
2010-05-25 10:08:35 51°32.614 2°51.959 237.1 11.4 238 32.8
2010-05-25 10:09:35 51°32.515 2°51.7 237.7 11.5 238 33
2010-05-25 10:10:35 51°32.414 2°51.442 236.7 11.3 237 32
2010-05-25 10:11:35 51°32.313 2°51.187 237 11.3 237 34.3
2010-05-25 10:12:35 51°32.212 2°50.931 237.4 11.4 237 33
2010-05-25 10:13:35 51°32.111 2°50.676 236.8 11.3 238 33.9
2010-05-25 10:14:35 51°32.011 2°50.421 238 11.3 238 29.3
2010-05-25 10:15:35 51°31.909 2°50.17 236.1 11.2 238 32.7
2010-05-25 10:16:35 51°31.809 2°49.918 238.2 11.2 238 31.7
2010-05-25 10:17:35 51°31.712 2°49.665 237.9 11.1 238 32.6
2010-05-25 10:18:35 51°31.61 2°49.415 237.6 11.1 239 30.9
2010-05-25 10:19:35 51°31.512 2°49.164 237.3 11.1 238 30.6
2010-05-25 10:20:35 51°31.411 2°48.914 236.9 11.2 238 28.9
2010-05-25 10:21:35 51°31.313 2°48.66 236.6 11.1 238 31.3
2010-05-25 10:22:35 51°31.213 2°48.409 237.1 11.2 237 32.2
2010-05-25 10:23:35 51°31.111 2°48.158 236.9 11.2 235 31.7
2010-05-25 10:24:35 51°31.011 2°47.905 237 11.4 240 31.9
2010-05-25 10:25:35 51°30.91 2°47.651 237.8 11.2 239 30.8
2010-05-25 10:26:35 51°30.836 2°47.378 251.3 11.2 255 31.8
2010-05-25 10:27:35 51°30.847 2°47.083 288.2 11.6 292 27
2010-05-25 10:28:35 51°30.967 2°46.831 314.4 12.3 319 30.3
2010-05-25 10:29:35 51°31.154 2°46.697 343 12.6 349 29.9
2010-05-25 10:30:35 51°31.366 2°46.698 6.3 12.9 8 30.9
2010-05-25 10:31:35 51°31.571 2°46.762 9.5 12.2 11 30.8
2010-05-25 10:32:35 51°31.769 2°46.803 2.9 12 5 32.1
2010-05-25 10:33:35 51°31.968 2°46.827 0.1 12 2 30.3
2010-05-25 10:34:35 51°32.167 2°46.841 359.4 12 3 32.9
2010-05-25 10:35:35 51°32.368 2°46.856 0.2 12.1 3 32.3
2010-05-25 10:36:35 51°32.569 2°46.874 359.7 12 3 34.1
2010-05-25 10:37:35 51°32.769 2°46.889 359.6 12 3 36.2
2010-05-25 10:38:35 51°32.969 2°46.906 0.1 12 3 34
2010-05-25 10:39:35 51°33.169 2°46.923 0.5 12.1 3 32.9
2010-05-25 10:40:35 51°33.369 2°46.942 0.5 11.9 4 34.1
2010-05-25 10:41:35 51°33.565 2°46.961 359.8 11.8 3 34.5
2010-05-25 10:42:35 51°33.762 2°46.975 0.2 11.8 3 33
2010-05-25 10:43:35 51°33.96 2°46.991 0.6 11.9 2 34.5
2010-05-25 10:44:35 51°34.155 2°47.006 359.5 11.8 3 32.3
2010-05-25 10:45:35 51°34.351 2°47.023 0.3 11.9 3 33.6
2010-05-25 10:46:35 51°34.548 2°47.036 359.7 11.8 2 31.3
2010-05-25 10:47:35 51°34.746 2°47.047 0.5 12 1 35.9
2010-05-25 10:48:35 51°34.946 2°47.059 0.4 12 2 37.5
2010-05-25 10:49:35 51°35.146 2°47.073 359.9 12 2 37.1
2010-05-25 10:50:35 51°35.346 2°47.097 6.7 12.1 9 37.8
2010-05-25 10:51:35 51°35.533 2°47.213 26.8 12.1 27 39.1
2010-05-25 10:52:35 51°35.71 2°47.369 28.4 12.1 29 38.9
2010-05-25 10:53:35 51°35.888 2°47.508 25.1 11.8 25 38.6
2010-05-25 10:54:35 51°36.065 2°47.641 25.3 11.7 25 39.8
2010-05-25 10:55:35 51°36.24 2°47.776 24.6 11.6 25 40.6
2010-05-25 10:56:35 51°36.416 2°47.909 24.6 11.7 26 41.2
2010-05-25 10:57:35 51°36.591 2°48.041 24.1 11.6 25 40.9
2010-05-25 10:58:35 51°36.767 2°48.172 25 11.6 25 40.4
2010-05-25 10:59:35 51°36.943 2°48.304 24.2 11.7 25 39.6
2010-05-25 11:00:35 51°37.121 2°48.435 24.5 11.7 25 40.2
2010-05-25 11:01:35 51°37.297 2°48.565 24.2 11.7 25 40.3
2010-05-25 11:02:35 51°37.472 2°48.701 24.2 11.6 25 40.9
2010-05-25 11:03:35 51°37.647 2°48.833 24.2 11.6 25 39.4
2010-05-25 11:04:35 51°37.823 2°48.964 24.1 11.6 25 40.6
2010-05-25 11:05:35 51°37.998 2°49.098 24.1 11.6 25 40.1
2010-05-25 11:06:35 51°38.172 2°49.23 24.2 11.6 25 39.6
2010-05-25 11:07:35 51°38.347 2°49.361 24.2 11.5 25 41.5
2010-05-25 11:08:35 51°38.522 2°49.491 24 11.6 25 39.6
2010-05-25 11:09:35 51°38.697 2°49.622 24.9 11.6 25 40.1
2010-05-25 11:10:35 51°38.872 2°49.75 24.7 11.6 24 38.7
2010-05-25 11:11:35 51°39.05 2°49.877 24.8 11.7 25 37.3
2010-05-25 11:12:35 51°39.227 2°50.006 24.4 11.6 24 37.9
2010-05-25 11:13:35 51°39.404 2°50.132 24.3 11.7 23 37.7
2010-05-25 11:14:35 51°39.577 2°50.275 32.1 11.8 32 37.5
2010-05-25 11:15:35 51°39.742 2°50.441 33.2 11.7 32 40.4
2010-05-25 11:16:35 51°39.908 2°50.605 33 11.6 31 40.1
2010-05-25 11:17:35 51°40.053 2°50.807 51.3 11.7 49 38.7
2010-05-25 11:18:35 51°40.165 2°51.059 68.4 11.4 67 36
2010-05-25 11:19:35 51°40.181 2°51.349 104.6 10.8 100 34.6
2010-05-25 11:20:35 51°40.105 2°51.598 134.3 10.3 130 32.5
2010-05-25 11:21:35 51°39.985 2°51.795 142.3 10.1 138 30.6
2010-05-25 11:22:35 51°39.86 2°51.983 142.7 10.4 135 38.1
2010-05-25 11:23:35 51°39.737 2°52.176 141.3 10.4 136 34
2010-05-25 11:24:35 51°39.616 2°52.373 141.9 10.4 134 31.2
2010-05-25 11:25:35 51°39.494 2°52.57 142.1 10.4 136 33
2010-05-25 11:26:35 51°39.369 2°52.77 142.2 10.9 138 34.2
2010-05-25 11:27:35 51°39.236 2°52.98 141.8 11.4 137 35.8
2010-05-25 11:28:35 51°39.1 2°53.195 141.8 11.5 133 34.1
2010-05-25 11:29:35 51°38.965 2°53.41 142.5 11.4 135 35.7
2010-05-25 11:30:35 51°38.83 2°53.63 142.4 11.6 133 32.6
2010-05-25 11:31:35 51°38.696 2°53.848 142 11.3 133 32.8
2010-05-25 11:32:35 51°38.561 2°54.067 142.3 11.5 135 32.5
2010-05-25 11:33:35 51°38.424 2°54.283 142.6 11.6 135 32.5
2010-05-25 11:34:35 51°38.286 2°54.501 142.3 11.7 135 31
2010-05-25 11:35:35 51°38.147 2°54.717 142.1 11.5 135 30
2010-05-25 11:36:35 51°38.006 2°54.929 145 11.4 142 27.4
2010-05-25 11:37:35 51°37.844 2°55.08 161.9 11.1 161 27.5
2010-05-25 11:38:35 51°37.663 2°55.107 185.2 11.1 178 25.9
2010-05-25 11:39:35 51°37.486 2°55.064 200.8 10.7 199 24.6
2010-05-25 11:40:35 51°37.355 2°54.888 235.2 10.4 237 25.6
2010-05-25 11:41:35 51°37.27 2°54.631 240.3 11 241 25.5
2010-05-25 11:42:35 51°37.171 2°54.384 234.1 11.3 234 22.3
2010-05-25 11:43:35 51°37.061 2°54.15 231.6 10.9 232 24.5
2010-05-25 11:44:35 51°36.952 2°53.919 230.9 10.8 231 23.1
2010-05-25 11:45:35 51°36.843 2°53.692 231 10.6 232 24.6
2010-05-25 11:46:35 51°36.732 2°53.459 230.9 11 235 23
2010-05-25 11:47:35 51°36.62 2°53.23 230.9 10.9 231 22.7
2010-05-25 11:48:35 51°36.509 2°53.003 230.9 10.6 232 22.5
2010-05-25 11:49:35 51°36.4 2°52.773 230.4 11.2 234 24.8
2010-05-25 11:50:35 51°36.289 2°52.544 230.6 11.1 233 24.7
2010-05-25 11:51:35 51°36.178 2°52.314 229.4 10.6 231 25.5
2010-05-25 11:52:34 51°36.072 2°52.092 230.5 10.8 233 21.5
2010-05-25 11:53:35 51°35.964 2°51.862 230.6 10.7 236 27.2
2010-05-25 11:54:35 51°35.855 2°51.634 230.3 10.6 231 26
2010-05-25 11:55:35 51°35.748 2°51.402 230 11.2 235 26.4
2010-05-25 11:56:35 51°35.636 2°51.17 228.9 10.8 232 27
2010-05-25 11:57:34 51°35.508 2°50.978 211.8 10.8 212 25.8
2010-05-25 11:58:35 51°35.346 2°50.846 200.4 10.5 196 28.5
2010-05-25 11:59:35 51°35.172 2°50.846 171.7 10.9 165 28.2
2010-05-25 12:00:35 51°35.012 2°51 148.5 11.6 140 33.8
2010-05-25 12:01:35 51°34.866 2°51.21 145 11.7 140 36.8
2010-05-25 12:02:35 51°34.715 2°51.415 146.6 11.8 143 38.9
2010-05-25 12:03:35 51°34.561 2°51.613 148.7 11.8 139 38.2
2010-05-25 12:04:35 51°34.408 2°51.807 147.3 11.8 140 39.8
2010-05-25 12:05:35 51°34.258 2°52.008 147.3 11.7 144 38.4
2010-05-25 12:06:34 51°34.109 2°52.205 147.3 11.6 141 37.4
2010-05-25 12:07:35 51°33.958 2°52.413 145.1 11.8 137 35.8
2010-05-25 12:08:34 51°33.828 2°52.641 132.7 11.9 126 34.4
2010-05-25 12:09:35 51°33.745 2°52.937 111.4 12.2 107 32.6
2010-05-25 12:10:35 51°33.75 2°53.265 81.3 12.6 75 31
2010-05-25 12:11:35 51°33.842 2°53.567 62.5 12.4 57 31.6
2010-05-25 12:12:35 51°33.954 2°53.831 58.6 11.8 55 31.6
2010-05-25 12:13:35 51°34.066 2°54.089 59.1 11.8 56 33.1
2010-05-25 12:14:35 51°34.183 2°54.344 56.3 11.8 53 31.4
2010-05-25 12:15:34 51°34.297 2°54.595 57.1 11.8 54 30.7
2010-05-25 12:16:35 51°34.413 2°54.855 57.2 11.7 54 32.8
2010-05-25 12:17:35 51°34.527 2°55.112 58 11.9 55 34
2010-05-25 12:18:35 51°34.641 2°55.371 57.9 11.8 55 34.2
2010-05-25 12:19:34 51°34.752 2°55.625 58.1 11.8 55 35.2
2010-05-25 12:20:35 51°34.865 2°55.889 58.3 11.7 56 35.4
2010-05-25 12:21:35 51°34.977 2°56.146 58.3 11.8 55 36
2010-05-25 12:22:35 51°35.09 2°56.403 58.2 11.7 55 36.3
2010-05-25 12:23:35 51°35.202 2°56.659 58.1 11.7 55 35.1
2010-05-25 12:24:35 51°35.312 2°56.915 58.2 11.6 55 35.3
2010-05-25 12:25:35 51°35.422 2°57.166 58.4 11.5 55 36.2
2010-05-25 12:26:34 51°35.529 2°57.413 58 11.5 55 37
2010-05-25 12:27:35 51°35.638 2°57.671 58.5 11.4 56 37.5
2010-05-25 12:28:35 51°35.732 2°57.933 72.6 11.2 70 35.2
2010-05-25 12:29:35 51°35.763 2°58.224 92.1 10.9 90 39.2
2010-05-25 12:30:35 51°35.734 2°58.505 115.3 10.6 113 32.9
2010-05-25 12:31:35 51°35.622 2°58.712 147.1 10.4 145 34.5
2010-05-25 12:32:35 51°35.468 2°58.828 163.7 10.1 164 29.8
2010-05-25 12:33:35 51°35.303 2°58.9 164.2 10.3 161 32.2
2010-05-25 12:34:35 51°35.143 2°58.991 163.2 10.1 161 31.5
2010-05-25 12:35:35 51°34.982 2°59.081 161.9 10.2 161 31
2010-05-25 12:36:35 51°34.818 2°59.168 163.6 10.5 162 29.5
2010-05-25 12:37:35 51°34.656 2°59.255 163.8 10.4 158 26.5
2010-05-25 12:38:35 51°34.493 2°59.337 165.6 10.2 161 27.1
2010-05-25 12:39:35 51°34.331 2°59.419 163.8 10.1 161 24.6
2010-05-25 12:40:35 51°34.161 2°59.51 161.4 11.1 164 21.7
2010-05-25 12:41:35 51°33.98 2°59.601 164.3 11.8 164 20.8
2010-05-25 12:42:35 51°33.795 2°59.692 164.6 11.5 162 16.9
2010-05-25 12:43:35 51°33.61 2°59.764 170.9 11.5 170 15.4
2010-05-25 12:44:35 51°33.426 2°59.778 180.1 11 188 13
2010-05-25 12:45:35 51°33.242 2°59.782 181.5 11.2 174 20.6
2010-05-25 12:46:35 51°33.054 2°59.787 182.2 11.3 174 33.3
2010-05-25 12:47:35 51°32.867 2°59.796 182.3 11.3 177 35
2010-05-25 12:48:35 51°32.677 2°59.805 181.9 11.5 177 33.5
2010-05-25 12:49:35 51°32.487 2°59.813 179.3 11.8 181 34.2
2010-05-25 12:50:34 51°32.302 2°59.808 187.8 11.4 187 33.2
2010-05-25 12:51:34 51°32.116 2°59.752 195.2 11.4 193 31
2010-05-25 12:52:35 51°31.928 2°59.677 194.1 11.3 191 29
2010-05-25 12:53:34 51°31.751 2°59.589 199.4 11.4 195 29
2010-05-25 12:54:35 51°31.569 2°59.492 201.2 11.4 196 29.2
2010-05-25 12:55:34 51°31.394 2°59.371 207.7 11.7 206 28.7
2010-05-25 12:56:35 51°31.218 2°59.223 206.7 11.8 206 28.7
2010-05-25 12:57:34 51°31.043 2°59.086 206.5 11.6 205 28.9
2010-05-25 12:58:35 51°30.863 2°58.964 199.6 11.7 202 29
2010-05-25 12:59:35 51°30.675 2°58.874 195.5 11.7 196 29.2
2010-05-25 13:00:34 51°30.492 2°58.788 199.5 11.8 193 28.9
2010-05-25 13:01:35 51°30.298 2°58.708 195.1 12 192 27.4
2010-05-25 13:02:35 51°30.105 2°58.647 192.2 11.5 188 26.3
2010-05-25 13:03:35 51°29.914 2°58.583 193.2 11.5 195 27
2010-05-25 13:04:35 51°29.727 2°58.508 194.7 11.4 197 25.5
2010-05-25 13:05:35 51°29.541 2°58.428 195.3 11.3 201 27.2
2010-05-25 13:06:35 51°29.355 2°58.336 196.2 11.5 198 26.5
2010-05-25 13:07:35 51°29.167 2°58.248 196.3 11.6 192 27.9
2010-05-25 13:08:35 51°28.983 2°58.156 196.1 11.9 201 29.1
2010-05-25 13:09:34 51°28.798 2°58.074 196.8 11.7 196 30.2
2010-05-25 13:10:35 51°28.61 2°57.98 194.7 11.7 200 31
2010-05-25 13:11:34 51°28.422 2°57.892 195.8 11.9 199 31
2010-05-25 13:12:35 51°28.231 2°57.791 199 11.8 199 30.9
2010-05-25 13:13:35 51°28.039 2°57.692 197.7 12.3 201 31.5
2010-05-25 13:14:35 51°27.849 2°57.598 196.1 11.8 198 29.6
2010-05-25 13:15:34 51°27.662 2°57.5 197.1 12 196 28.5
2010-05-25 13:16:35 51°27.467 2°57.4 198.2 12.3 193 27.6
2010-05-25 13:17:35 51°27.275 2°57.298 198.2 12.3 201 25.8
2010-05-25 13:18:35 51°27.081 2°57.199 197.5 12.2 195 24.5
2010-05-25 13:19:35 51°26.888 2°57.095 198.3 11.9 202 21.4
2010-05-25 13:20:35 51°26.697 2°56.994 196.1 12.2 199 19.4
2010-05-25 13:21:35 51°26.507 2°56.893 195.5 11.6 199 18.9
2010-05-25 13:22:35 51°26.318 2°56.788 197.6 12.3 197 18.6
2010-05-25 13:23:35 51°26.132 2°56.689 197 11.6 199 18.9
2010-05-25 13:24:34 51°25.945 2°56.592 196.8 11.8 197 15.2
2010-05-25 13:25:34 51°25.756 2°56.486 200.1 11.9 194 16.6
2010-05-25 13:26:35 51°25.568 2°56.377 196.1 12 199 18.2
2010-05-25 13:27:34 51°25.381 2°56.264 200 12 204 20.9
2010-05-25 13:28:35 51°25.185 2°56.16 196.1 12.5 194 23.6
2010-05-25 13:29:35 51°24.99 2°56.054 195.7 12.5 195 25.2
2010-05-25 13:30:35 51°24.794 2°55.968 188.7 12 193 24.7
2010-05-25 13:31:34 51°24.602 2°55.908 189.5 12.1 192 23.6
2010-05-25 13:32:35 51°24.4 2°55.848 190.5 12.3 193 24.6
2010-05-25 13:33:34 51°24.202 2°55.783 190.3 12.3 196 23.3
2010-05-25 13:34:34 51°24 2°55.722 189.1 12.2 186 20.5
2010-05-25 13:35:34 51°23.801 2°55.655 191 12.4 190 18.3
2010-05-25 13:36:35 51°23.598 2°55.572 192.1 12.4 192 18.2
2010-05-25 13:37:19 51°9.973 2°58.082 125.3 -999 -999 -999
2010-05-25 13:37:49 51°23.357 2°55.464 195.3 12.4 192 19.6
2010-05-25 13:38:49 51°23.158 2°55.377 195 12.5 196 20
2010-05-25 13:39:49 51°22.953 2°55.283 195.2 12.5 197 19.7
2010-05-25 13:40:49 51°22.756 2°55.169 198.3 12.4 199 19.8
2010-05-25 13:41:49 51°22.561 2°55.045 199.1 12.7 206 19.2
2010-05-25 13:42:49 51°22.365 2°54.922 198.2 12.7 200 18.9
2010-05-25 13:43:49 51°22.172 2°54.799 199.4 12.6 199 19.3
2010-05-25 13:44:49 51°21.979 2°54.679 198.9 12.4 202 18.5
2010-05-25 13:45:49 51°21.785 2°54.563 197.8 12.6 205 17.9
2010-05-25 13:46:49 51°21.591 2°54.451 195.6 12.4 200 17.7
2010-05-25 13:47:49 51°21.397 2°54.342 196.8 12.3 193 17.6
2010-05-25 13:48:49 51°21.199 2°54.23 197.5 12.6 197 17.4
2010-05-25 13:49:49 51°21.001 2°54.117 193.4 12.8 199 17.2
2010-05-25 13:50:49 51°20.802 2°54 196.5 12.5 200 17.1
2010-05-25 13:51:49 51°20.602 2°53.882 195.5 12.9 198 16.9
2010-05-25 13:52:49 51°20.4 2°53.789 190.5 12.7 193 16.8
2010-05-25 13:53:49 51°20.196 2°53.694 193.2 12.9 193 16.2
2010-05-25 13:54:49 51°19.99 2°53.597 192.3 13.2 197 15.7
2010-05-25 13:55:49 51°19.789 2°53.497 193.7 12 198 14.6
2010-05-25 13:56:49 51°19.599 2°53.399 194.1 11.9 199 14.2
2010-05-25 13:57:49 51°19.413 2°53.303 192.7 11.5 196 13.5
2010-05-25 13:58:49 51°19.229 2°53.204 195.3 11.8 198 13
2010-05-25 13:59:49 51°19.044 2°53.105 194.2 11.9 196 12.6
2010-05-25 14:00:49 51°18.858 2°53.005 194.8 11.9 195 12.2
2010-05-25 14:01:49 51°18.671 2°52.896 199 12 203 11.8
2010-05-25 14:02:49 51°18.489 2°52.786 195.3 11.8 201 11.5
2010-05-25 14:03:49 51°18.304 2°52.676 196.9 11.8 201 11.4
2010-05-25 14:04:49 51°18.121 2°52.564 196.9 11.9 203 10.9
2010-05-25 14:05:49 51°17.937 2°52.458 195.3 11.8 201 10.9
2010-05-25 14:06:49 51°17.752 2°52.358 193 11.5 195 10.5
2010-05-25 14:07:49 51°17.564 2°52.272 190.8 11.8 200 10.8
2010-05-25 14:08:49 51°17.376 2°52.237 174.3 11.5 182 11.4
2010-05-25 14:09:49 51°17.19 2°52.273 165.3 11.2 159 10.8
2010-05-25 14:10:49 51°17.01 2°52.345 154.9 11.1 159 9.9
2010-05-25 14:11:49 51°16.848 2°52.484 144.3 11.1 149 10.1
2010-05-25 14:12:49 51°16.691 2°52.639 143.9 11.2 145 10.7
2010-05-25 14:13:49 51°16.533 2°52.792 144 11.3 152 12.1
2010-05-25 14:14:49 51°16.378 2°52.955 142.7 11.2 148 12
2010-05-25 14:15:49 51°16.225 2°53.121 138.8 11.2 147 12.2
2010-05-25 14:16:49 51°16.059 2°53.254 149.7 11.4 156 12.1
2010-05-25 14:17:49 51°15.897 2°53.404 139.9 11.2 145 12
2010-05-25 14:18:49 51°15.735 2°53.557 141 11.4 150 11.9
2010-05-25 14:19:49 51°15.574 2°53.713 143.1 11.3 147 11.1
2010-05-25 14:20:49 51°15.429 2°53.893 134.5 11.1 140 10.8
2010-05-25 14:21:49 51°15.282 2°54.071 143.1 11.2 147 10.3
2010-05-25 14:22:49 51°15.135 2°54.252 141 11.3 142 10
2010-05-25 14:23:49 51°14.985 2°54.43 142 11.3 146 9.8
2010-05-25 14:24:49 51°14.829 2°54.604 144.4 11.7 147 11.2
2010-05-25 14:25:49 51°14.679 2°54.786 136.8 11.6 146 11.6
2010-05-25 14:26:49 51°14.515 2°54.947 137 11.6 151 11.7
2010-05-25 14:27:49 51°14.367 2°55.125 146.1 11.4 148 9.5
2010-05-25 14:28:49 51°14.235 2°55.297 141.7 8.6 144 10.6
2010-05-25 14:29:49 51°14.127 2°55.405 145.6 7.2 147 10.8
2010-05-25 14:30:49 51°14.023 2°55.487 158 6.8 159 10.7
2010-05-25 14:31:49 51°13.926 2°55.558 155.4 6.5 157 10.8
2010-05-25 14:32:49 51°13.826 2°55.63 151.8 6.7 151 10.9
2010-05-25 14:33:49 51°13.747 2°55.727 132.8 5.2 132 10.4
2010-05-25 14:34:49 51°13.7 2°55.822 126.3 4.1 127 10.6
2010-05-25 14:35:49 51°13.671 2°55.913 105.4 3.7 106 8.6
2010-05-25 14:36:49 51°13.667 2°55.944 108.3 -999 112 6.1
2010-05-25 14:37:49 51°13.666 2°55.949 115.6 0.7 125 5.9